Dost 1 — TCPI — position and weather

sailwx.info

Track history (hours):
 
Tides and Currents Weather Stations Pressure Air Temp Water Temp Dewpoint Dewpoint Depression Visibility Wind Speed Wind Dir Waves Ship Positions

Dost 1

Last reported at 2014-Sep-11 06:32 UTC. Time now 2014-Sep-17 05:31 UTC.
Position N 38°13' E 025°05'.

Length 115 m; draft 5.8 m.

Type: Cargo ship. MMSI: 271000303.

Date/timePositionNaut miles runAvg speedWind from/ knotsBaromVisibWave heightAir tempDewpointWater temp
2014-Sep-11 06:32N 38°13' E 025°05'1312.5
2014-Sep-11 05:31N 38°20' E 025°18'1212.5
2014-Sep-11 04:33N 38°26' E 025°31'1212.5
2014-Sep-11 03:33N 38°33' E 025°45'  
2014-Sep-06 05:27N 40°57' E 028°56'2 0.4
2014-Sep-06 01:19N 40°59' E 028°57'2 2.5
2014-Sep-06 00:33N 40°59' E 028°59'40 2.5
2014-Sep-05 08:31N 41°26' E 029°38'32511.1
2014-Sep-04 03:20N 43°47' E 036°16'8111.9
2014-Sep-03 20:32N 44°36' E 037°46'8 8.3
2014-Sep-03 19:33N 44°44' E 037°48'0 0.3
2014-Sep-03 18:33N 44°44' E 037°47'0 0.0
2014-Sep-03 17:33N 44°44' E 037°47'0 0.0
2014-Sep-03 16:33N 44°44' E 037°47'0 0.0
2014-Sep-03 15:32N 44°44' E 037°47'0 0.0
2014-Sep-03 14:32N 44°44' E 037°47'0 0.0
2014-Sep-03 13:32N 44°44' E 037°47'0 0.0
2014-Sep-03 12:31N 44°44' E 037°47'0 0.0
2014-Sep-03 11:31N 44°44' E 037°47'0 0.0
2014-Sep-03 10:33N 44°44' E 037°47'0 0.0
2014-Sep-03 09:33N 44°44' E 037°47'0 0.0
2014-Sep-03 08:32N 44°44' E 037°47'0 0.0
2014-Sep-03 07:32N 44°44' E 037°47'0 0.0
2014-Sep-03 06:32N 44°44' E 037°47'0 0.0
2014-Sep-03 05:30N 44°44' E 037°47'0 0.0
2014-Sep-03 04:33N 44°44' E 037°47'0 0.0
2014-Sep-03 03:32N 44°44' E 037°47'0 0.0
2014-Sep-03 02:33N 44°44' E 037°47'0 0.0
2014-Sep-03 01:30N 44°44' E 037°47'0 0.0
2014-Sep-03 00:32N 44°44' E 037°47'0 0.0
2014-Sep-02 23:32N 44°44' E 037°47'0 0.0
2014-Sep-02 22:31N 44°44' E 037°47'0 0.0
2014-Sep-02 21:31N 44°44' E 037°47'0 0.0
2014-Sep-02 20:31N 44°44' E 037°47'0 0.0
2014-Sep-02 19:33N 44°44' E 037°47'0 0.0
2014-Sep-02 18:33N 44°44' E 037°47'0 0.0
2014-Sep-02 17:32N 44°44' E 037°47'0 0.0
2014-Sep-02 16:32N 44°44' E 037°47'0 0.0
2014-Sep-02 15:31N 44°44' E 037°47'0 0.0
2014-Sep-02 14:31N 44°44' E 037°47'0 0.0
2014-Sep-02 13:31N 44°44' E 037°47'0 0.0
2014-Sep-02 12:30N 44°44' E 037°47'0 0.0
2014-Sep-02 11:33N 44°44' E 037°47'0 0.0
2014-Sep-02 10:32N 44°44' E 037°47'0 0.0
2014-Sep-02 09:32N 44°44' E 037°47'0 0.0
2014-Sep-02 08:32N 44°44' E 037°47'0 0.0
2014-Sep-02 07:31N 44°44' E 037°47'0 0.0
2014-Sep-02 06:31N 44°44' E 037°47'0 0.0
2014-Sep-02 05:33N 44°44' E 037°47'0 0.0
2014-Sep-02 04:30N 44°44' E 037°47'0 0.0
2014-Sep-02 03:32N 44°44' E 037°47'0 0.0
2014-Sep-02 02:32N 44°44' E 037°47'0 0.0
2014-Sep-02 01:31N 44°44' E 037°47'0 0.0
2014-Sep-02 00:31N 44°44' E 037°47'0 0.0
2014-Sep-01 23:31N 44°44' E 037°47'0 0.0
2014-Sep-01 22:33N 44°44' E 037°47'0 0.0
2014-Sep-01 21:33N 44°44' E 037°47'0 0.0
2014-Sep-01 20:32N 44°44' E 037°47'0 0.0
2014-Sep-01 19:32N 44°44' E 037°47'0 0.0
2014-Sep-01 18:31N 44°44' E 037°47'0 0.0
2014-Sep-01 17:31N 44°44' E 037°47'0 0.0
2014-Sep-01 16:27N 44°44' E 037°47'0 0.0
2014-Sep-01 15:33N 44°44' E 037°47'0 0.0
2014-Sep-01 14:33N 44°44' E 037°47'0 0.0
2014-Sep-01 13:32N 44°44' E 037°47'0 0.0
2014-Sep-01 12:32N 44°44' E 037°47'0 0.0
2014-Sep-01 11:31N 44°44' E 037°47'0 0.0
2014-Sep-01 10:28N 44°44' E 037°47'0 0.0
2014-Sep-01 09:34N 44°44' E 037°47'0 0.0
2014-Sep-01 08:30N 44°44' E 037°47'0 0.0
2014-Sep-01 07:33N 44°44' E 037°47'0 0.0
2014-Sep-01 06:32N 44°44' E 037°47'  
Track history (hours):
 
Tides and Currents Weather Stations Pressure Air Temp Water Temp Dewpoint Dewpoint Depression Visibility Wind Speed Wind Dir Waves Ship Positions

Dost 1

Last reported at 2014-Sep-11 06:32 UTC. Time now 2014-Sep-17 05:31 UTC.
Position N 38°13' E 025°05'.

Length 115 m; draft 5.8 m.

Type: Cargo ship. MMSI: 271000303.

Date/timePositionNaut miles runAvg speedWind from/ knotsBaromVisibWave heightAir tempDewpointWater temp
2014-Sep-11 06:32N 38°13' E 025°05'1312.5
2014-Sep-11 05:31N 38°20' E 025°18'1212.5
2014-Sep-11 04:33N 38°26' E 025°31'1212.5
2014-Sep-11 03:33N 38°33' E 025°45'  
2014-Sep-06 05:27N 40°57' E 028°56'2 0.4
2014-Sep-06 01:19N 40°59' E 028°57'2 2.5
2014-Sep-06 00:33N 40°59' E 028°59'40 2.5
2014-Sep-05 08:31N 41°26' E 029°38'32511.1
2014-Sep-04 03:20N 43°47' E 036°16'8111.9
2014-Sep-03 20:32N 44°36' E 037°46'8 8.3
2014-Sep-03 19:33N 44°44' E 037°48'0 0.3
2014-Sep-03 18:33N 44°44' E 037°47'0 0.0
2014-Sep-03 17:33N 44°44' E 037°47'0 0.0
2014-Sep-03 16:33N 44°44' E 037°47'0 0.0
2014-Sep-03 15:32N 44°44' E 037°47'0 0.0
2014-Sep-03 14:32N 44°44' E 037°47'0 0.0
2014-Sep-03 13:32N 44°44' E 037°47'0 0.0
2014-Sep-03 12:31N 44°44' E 037°47'0 0.0
2014-Sep-03 11:31N 44°44' E 037°47'0 0.0
2014-Sep-03 10:33N 44°44' E 037°47'0 0.0
2014-Sep-03 09:33N 44°44' E 037°47'0 0.0
2014-Sep-03 08:32N 44°44' E 037°47'0 0.0
2014-Sep-03 07:32N 44°44' E 037°47'0 0.0
2014-Sep-03 06:32N 44°44' E 037°47'0 0.0
2014-Sep-03 05:30N 44°44' E 037°47'0 0.0
2014-Sep-03 04:33N 44°44' E 037°47'0 0.0
2014-Sep-03 03:32N 44°44' E 037°47'0 0.0
2014-Sep-03 02:33N 44°44' E 037°47'0 0.0
2014-Sep-03 01:30N 44°44' E 037°47'0 0.0
2014-Sep-03 00:32N 44°44' E 037°47'0 0.0
2014-Sep-02 23:32N 44°44' E 037°47'0 0.0
2014-Sep-02 22:31N 44°44' E 037°47'0 0.0
2014-Sep-02 21:31N 44°44' E 037°47'0 0.0
2014-Sep-02 20:31N 44°44' E 037°47'0 0.0
2014-Sep-02 19:33N 44°44' E 037°47'0 0.0
2014-Sep-02 18:33N 44°44' E 037°47'0 0.0
2014-Sep-02 17:32N 44°44' E 037°47'0 0.0
2014-Sep-02 16:32N 44°44' E 037°47'0 0.0
2014-Sep-02 15:31N 44°44' E 037°47'0 0.0
2014-Sep-02 14:31N 44°44' E 037°47'0 0.0
2014-Sep-02 13:31N 44°44' E 037°47'0 0.0
2014-Sep-02 12:30N 44°44' E 037°47'0 0.0
2014-Sep-02 11:33N 44°44' E 037°47'0 0.0
2014-Sep-02 10:32N 44°44' E 037°47'0 0.0
2014-Sep-02 09:32N 44°44' E 037°47'0 0.0
2014-Sep-02 08:32N 44°44' E 037°47'0 0.0
2014-Sep-02 07:31N 44°44' E 037°47'0 0.0
2014-Sep-02 06:31N 44°44' E 037°47'0 0.0
2014-Sep-02 05:33N 44°44' E 037°47'0 0.0
2014-Sep-02 04:30N 44°44' E 037°47'0 0.0
2014-Sep-02 03:32N 44°44' E 037°47'0 0.0
2014-Sep-02 02:32N 44°44' E 037°47'0 0.0
2014-Sep-02 01:31N 44°44' E 037°47'0 0.0
2014-Sep-02 00:31N 44°44' E 037°47'0 0.0
2014-Sep-01 23:31N 44°44' E 037°47'0 0.0
2014-Sep-01 22:33N 44°44' E 037°47'0 0.0
2014-Sep-01 21:33N 44°44' E 037°47'0 0.0
2014-Sep-01 20:32N 44°44' E 037°47'0 0.0
2014-Sep-01 19:32N 44°44' E 037°47'0 0.0
2014-Sep-01 18:31N 44°44' E 037°47'0 0.0
2014-Sep-01 17:31N 44°44' E 037°47'0 0.0
2014-Sep-01 16:27N 44°44' E 037°47'0 0.0
2014-Sep-01 15:33N 44°44' E 037°47'0 0.0
2014-Sep-01 14:33N 44°44' E 037°47'0 0.0
2014-Sep-01 13:32N 44°44' E 037°47'0 0.0
2014-Sep-01 12:32N 44°44' E 037°47'0 0.0
2014-Sep-01 11:31N 44°44' E 037°47'0 0.0
2014-Sep-01 10:28N 44°44' E 037°47'0 0.0
2014-Sep-01 09:34N 44°44' E 037°47'0 0.0
2014-Sep-01 08:30N 44°44' E 037°47'0 0.0
2014-Sep-01 07:33N 44°44' E 037°47'0 0.0
2014-Sep-01 06:32N 44°44' E 037°47'  

Dump ship's entire track history